Aérodrome :
LOGIN :

S'inscrire | Disclaimer

   EN    FR    IT 

 










Légende :    VFR   VFR Marginal   IFR   IFR Intensif   IFR Très Intensif
Visi : 
Plafond : 
>= 8 km
>= 3000ft
5 à 8 km
1000 à 3000 ft
1500m à 5 km
500 à 1000 ft
800 à 1500m
200 à 500 ft
< 800m
< 200 ft
Symboles :   Orages  Brouillard  Fortes neiges  Fortes précipitations  Vent > 20 kt
SIGMETs :   Divers  Orages  Givrage  Turbulence  Onde Orograph.  Cendres Volcan.






- Altitude de l'aérodrome : 755 ft
- Code IATA : DRS


EDDC - Dresden Klotzsche

DERNIER METAR :
  • 252150Z 30003KT 260V330 9999 BKN025 10/09 Q1031

METARs EXPIRÉS :
  • 252120Z 30003KT 9999 SCT036 10/09 Q1031
  • 252050Z 32004KT 9999 FEW024 SCT039 10/09 Q1031
  • 252020Z 31005KT 9999 FEW018 10/09 Q1031
  • 251950Z 30003KT CAVOK 10/09 Q1031 NOSIG
  • 251920Z 29003KT 250V320 9999 FEW037 10/09 Q1031 NOSIG

TAF TAF EDDC
Valide du 25 à 18h jusqu'au 26 à 18h UTC


251700Z 2518/2618 33006KT 9999 BKN020
TEMPO 2600/2609 BKN011
PROB30
TEMPO 2601/2607 3000 BR BKN008



MET'MAP, la Météo Aéronautique d'un coup d'oeil ! - Copyright ORBIFLY Décembre 2007 - Disclaimer

ORBIFLY MET'MAP TEAM :

Programmation & Développement : Alexandra Zaïnal
Sur une idée originale de : Baudouin d'Aumeries
Assistance à la programmation : Marc-Olivier Méhu
Soutien technique & logistique : Manuel Goepfert

Contact : metmap@orbifly.com




SOURCES & CREDITS :

   NOAA